sensor_id;sensor_type;location;lat;lon;timestamp;pressure;altitude;pressure_sealevel;temperature;humidity
6859;BME280;3468;42.824;23.240;2024-01-15T00:02:08;67222.75;;;-3.98;100.00
6859;BME280;3468;42.824;23.240;2024-01-15T00:04:36;67202.59;;;-4.13;100.00
6859;BME280;3468;42.824;23.240;2024-01-15T00:07:04;67241.56;;;-4.14;100.00
6859;BME280;3468;42.824;23.240;2024-01-15T00:09:30;67219.91;;;-4.13;100.00
6859;BME280;3468;42.824;23.240;2024-01-15T00:11:57;67212.88;;;-4.17;100.00
6859;BME280;3468;42.824;23.240;2024-01-15T00:14:24;67192.34;;;-4.16;100.00
6859;BME280;3468;42.824;23.240;2024-01-15T00:16:52;67211.72;;;-4.12;100.00
6859;BME280;3468;42.824;23.240;2024-01-15T00:19:20;67227.88;;;-4.13;100.00
6859;BME280;3468;42.824;23.240;2024-01-15T00:21:47;67221.81;;;-4.14;100.00
6859;BME280;3468;42.824;23.240;2024-01-15T00:24:14;67245.38;;;-4.15;100.00
6859;BME280;3468;42.824;23.240;2024-01-15T00:26:41;67170.31;;;-4.37;100.00
6859;BME280;3468;42.824;23.240;2024-01-15T00:29:08;67199.56;;;-4.20;100.00
6859;BME280;3468;42.824;23.240;2024-01-15T00:31:35;67190.09;;;-4.24;100.00
6859;BME280;3468;42.824;23.240;2024-01-15T00:34:03;67060.22;;;-4.79;100.00
6859;BME280;3468;42.824;23.240;2024-01-15T00:36:30;67207.19;;;-4.29;100.00
6859;BME280;3468;42.824;23.240;2024-01-15T00:38:57;67172.59;;;-4.22;99.27
6859;BME280;3468;42.824;23.240;2024-01-15T00:41:24;67180.59;;;-4.35;99.13
6859;BME280;3468;42.824;23.240;2024-01-15T00:44:00;67167.47;;;-4.59;100.00
6859;BME280;3468;42.824;23.240;2024-01-15T00:46:30;67197.91;;;-5.52;100.00
6859;BME280;3468;42.824;23.240;2024-01-15T00:48:57;67203.97;;;-4.47;100.00
6859;BME280;3468;42.824;23.240;2024-01-15T00:51:25;67195.59;;;-4.50;99.25
6859;BME280;3468;42.824;23.240;2024-01-15T00:53:52;67194.44;;;-4.51;99.68
6859;BME280;3468;42.824;23.240;2024-01-15T00:56:18;67181.91;;;-4.49;99.46
6859;BME280;3468;42.824;23.240;2024-01-15T00:58:45;67395.81;;;-4.92;98.05
6859;BME280;3468;42.824;23.240;2024-01-15T01:01:12;67197.50;;;-4.56;98.76
6859;BME280;3468;42.824;23.240;2024-01-15T01:03:38;67163.13;;;-4.58;99.44
6859;BME280;3468;42.824;23.240;2024-01-15T01:06:05;67204.16;;;-4.55;99.36
6859;BME280;3468;42.824;23.240;2024-01-15T01:08:33;67161.97;;;-4.53;100.00
6859;BME280;3468;42.824;23.240;2024-01-15T01:11:00;67152.09;;;-4.53;100.00
6859;BME280;3468;42.824;23.240;2024-01-15T01:13:27;67165.75;;;-4.54;100.00
6859;BME280;3468;42.824;23.240;2024-01-15T01:15:54;67179.81;;;-4.59;100.00
6859;BME280;3468;42.824;23.240;2024-01-15T01:18:20;67153.06;;;-4.63;100.00
6859;BME280;3468;42.824;23.240;2024-01-15T01:20:47;67197.09;;;-4.65;100.00
6859;BME280;3468;42.824;23.240;2024-01-15T01:23:14;67162.94;;;-4.69;100.00
6859;BME280;3468;42.824;23.240;2024-01-15T01:25:42;67172.44;;;-4.72;100.00
6859;BME280;3468;42.824;23.240;2024-01-15T01:28:09;67151.72;;;-4.75;100.00
6859;BME280;3468;42.824;23.240;2024-01-15T01:30:36;67161.22;;;-4.77;100.00
6859;BME280;3468;42.824;23.240;2024-01-15T01:33:03;67167.88;;;-4.82;100.00
6859;BME280;3468;42.824;23.240;2024-01-15T01:35:29;67164.63;;;-4.81;100.00
6859;BME280;3468;42.824;23.240;2024-01-15T01:37:56;67191.97;;;-4.76;100.00
6859;BME280;3468;42.824;23.240;2024-01-15T01:40:26;67184.00;;;-4.77;100.00
6859;BME280;3468;42.824;23.240;2024-01-15T01:42:54;67137.69;;;-4.76;100.00
6859;BME280;3468;42.824;23.240;2024-01-15T01:45:21;67165.03;;;-4.72;100.00
6859;BME280;3468;42.824;23.240;2024-01-15T01:47:48;67167.66;;;-4.74;100.00
6859;BME280;3468;42.824;23.240;2024-01-15T01:50:15;67152.69;;;-4.72;100.00
6859;BME280;3468;42.824;23.240;2024-01-15T01:52:42;67192.53;;;-4.69;100.00
6859;BME280;3468;42.824;23.240;2024-01-15T01:55:09;67173.19;;;-4.73;100.00
6859;BME280;3468;42.824;23.240;2024-01-15T01:57:38;67144.69;;;-4.72;100.00
6859;BME280;3468;42.824;23.240;2024-01-15T02:00:08;67176.97;;;-4.74;100.00
6859;BME280;3468;42.824;23.240;2024-01-15T02:02:35;67199.00;;;-4.79;100.00
6859;BME280;3468;42.824;23.240;2024-01-15T02:05:04;67253.81;;;-4.97;100.00
6859;BME280;3468;42.824;23.240;2024-01-15T02:07:34;67070.88;;;-5.13;100.00
6859;BME280;3468;42.824;23.240;2024-01-15T02:10:00;67143.38;;;-4.84;100.00
6859;BME280;3468;42.824;23.240;2024-01-15T02:12:27;67331.81;;;-5.07;100.00
6859;BME280;3468;42.824;23.240;2024-01-15T02:14:54;67138.63;;;-4.99;100.00
6859;BME280;3468;42.824;23.240;2024-01-15T02:17:22;67117.19;;;-5.00;100.00
6859;BME280;3468;42.824;23.240;2024-01-15T02:19:49;67159.09;;;-5.13;100.00
6859;BME280;3468;42.824;23.240;2024-01-15T02:22:16;67111.13;;;-5.14;100.00
6859;BME280;3468;42.824;23.240;2024-01-15T02:24:44;67149.63;;;-5.24;100.00
6859;BME280;3468;42.824;23.240;2024-01-15T02:27:11;67154.16;;;-5.39;100.00
6859;BME280;3468;42.824;23.240;2024-01-15T02:29:38;67086.81;;;-5.44;100.00
6859;BME280;3468;42.824;23.240;2024-01-15T02:32:06;67151.28;;;-5.41;100.00
6859;BME280;3468;42.824;23.240;2024-01-15T02:34:33;67127.97;;;-5.30;100.00
6859;BME280;3468;42.824;23.240;2024-01-15T02:36:59;67128.00;;;-5.17;100.00
6859;BME280;3468;42.824;23.240;2024-01-15T02:39:26;67128.94;;;-5.01;100.00
6859;BME280;3468;42.824;23.240;2024-01-15T02:41:55;67166.53;;;-4.94;100.00
6859;BME280;3468;42.824;23.240;2024-01-15T02:44:23;67146.97;;;-5.09;100.00
6859;BME280;3468;42.824;23.240;2024-01-15T02:46:49;67108.81;;;-5.03;100.00
6859;BME280;3468;42.824;23.240;2024-01-15T02:49:16;67139.00;;;-4.90;100.00
6859;BME280;3468;42.824;23.240;2024-01-15T02:51:43;67158.56;;;-4.69;100.00
6859;BME280;3468;42.824;23.240;2024-01-15T02:54:10;67185.50;;;-4.60;100.00
6859;BME280;3468;42.824;23.240;2024-01-15T02:56:37;67187.22;;;-4.53;100.00
6859;BME280;3468;42.824;23.240;2024-01-15T02:59:05;67285.75;;;-4.76;100.00
6859;BME280;3468;42.824;23.240;2024-01-15T03:01:31;67180.94;;;-4.45;100.00
6859;BME280;3468;42.824;23.240;2024-01-15T03:03:58;67195.22;;;-4.46;100.00
6859;BME280;3468;42.824;23.240;2024-01-15T03:06:25;67168.25;;;-4.48;100.00
6859;BME280;3468;42.824;23.240;2024-01-15T03:08:52;67185.91;;;-4.45;100.00
6859;BME280;3468;42.824;23.240;2024-01-15T03:11:18;67143.56;;;-4.73;100.00
6859;BME280;3468;42.824;23.240;2024-01-15T03:13:45;67196.34;;;-4.45;100.00
6859;BME280;3468;42.824;23.240;2024-01-15T03:16:13;67198.63;;;-4.43;100.00
6859;BME280;3468;42.824;23.240;2024-01-15T03:18:40;67217.63;;;-4.48;100.00
6859;BME280;3468;42.824;23.240;2024-01-15T03:21:06;67195.97;;;-4.47;100.00
6859;BME280;3468;42.824;23.240;2024-01-15T03:23:33;67211.53;;;-4.49;100.00
6859;BME280;3468;42.824;23.240;2024-01-15T03:26:00;67207.56;;;-4.52;100.00
6859;BME280;3468;42.824;23.240;2024-01-15T03:28:27;67196.53;;;-4.53;100.00
6859;BME280;3468;42.824;23.240;2024-01-15T03:30:55;67113.75;;;-4.65;100.00
6859;BME280;3468;42.824;23.240;2024-01-15T03:33:23;67174.88;;;-4.46;100.00
6859;BME280;3468;42.824;23.240;2024-01-15T03:35:50;67145.25;;;-4.59;100.00
6859;BME280;3468;42.824;23.240;2024-01-15T03:38:17;67180.03;;;-4.54;100.00
6859;BME280;3468;42.824;23.240;2024-01-15T03:40:43;67164.06;;;-4.62;100.00
6859;BME280;3468;42.824;23.240;2024-01-15T03:43:10;67174.13;;;-4.77;100.00
6859;BME280;3468;42.824;23.240;2024-01-15T03:45:37;67183.06;;;-4.73;100.00
6859;BME280;3468;42.824;23.240;2024-01-15T03:48:04;67140.13;;;-4.89;100.00
6859;BME280;3468;42.824;23.240;2024-01-15T03:50:33;67198.63;;;-4.68;100.00
6859;BME280;3468;42.824;23.240;2024-01-15T03:53:02;67122.47;;;-4.59;100.00
6859;BME280;3468;42.824;23.240;2024-01-15T03:55:29;67102.34;;;-5.45;100.00
6859;BME280;3468;42.824;23.240;2024-01-15T03:57:56;67148.69;;;-4.82;100.00
6859;BME280;3468;42.824;23.240;2024-01-15T04:00:23;67206.41;;;-4.34;100.00
6859;BME280;3468;42.824;23.240;2024-01-15T04:02:49;67223.16;;;-4.28;100.00
6859;BME280;3468;42.824;23.240;2024-01-15T04:05:16;67231.69;;;-4.14;100.00
6859;BME280;3468;42.824;23.240;2024-01-15T04:07:44;67229.41;;;-4.03;100.00
6859;BME280;3468;42.824;23.240;2024-01-15T04:10:11;67214.00;;;-3.91;100.00
6859;BME280;3468;42.824;23.240;2024-01-15T04:12:38;67258.66;;;-3.86;100.00
6859;BME280;3468;42.824;23.240;2024-01-15T04:15:05;67225.41;;;-3.94;100.00
6859;BME280;3468;42.824;23.240;2024-01-15T04:17:32;67239.25;;;-3.65;100.00
6859;BME280;3468;42.824;23.240;2024-01-15T04:19:58;67275.19;;;-3.59;100.00
6859;BME280;3468;42.824;23.240;2024-01-15T04:22:26;67204.41;;;-3.56;100.00
6859;BME280;3468;42.824;23.240;2024-01-15T04:24:54;67252.53;;;-3.49;100.00
6859;BME280;3468;42.824;23.240;2024-01-15T04:27:21;67235.41;;;-3.44;100.00
6859;BME280;3468;42.824;23.240;2024-01-15T04:29:48;67284.47;;;-3.34;100.00
6859;BME280;3468;42.824;23.240;2024-01-15T04:32:15;67307.13;;;-3.31;100.00
6859;BME280;3468;42.824;23.240;2024-01-15T04:34:41;67303.88;;;-3.24;100.00
6859;BME280;3468;42.824;23.240;2024-01-15T04:37:08;67318.72;;;-3.17;100.00
6859;BME280;3468;42.824;23.240;2024-01-15T04:39:35;67306.69;;;-3.02;100.00
6859;BME280;3468;42.824;23.240;2024-01-15T04:42:03;67279.72;;;-3.36;100.00
6859;BME280;3468;42.824;23.240;2024-01-15T04:44:30;67296.25;;;-3.15;100.00
6859;BME280;3468;42.824;23.240;2024-01-15T04:46:57;67239.19;;;-3.32;100.00
6859;BME280;3468;42.824;23.240;2024-01-15T04:49:24;67271.94;;;-3.45;100.00
6859;BME280;3468;42.824;23.240;2024-01-15T04:51:52;67257.88;;;-3.40;100.00
6859;BME280;3468;42.824;23.240;2024-01-15T04:54:19;67224.56;;;-3.41;100.00
6859;BME280;3468;42.824;23.240;2024-01-15T04:56:45;67296.09;;;-3.39;100.00
6859;BME280;3468;42.824;23.240;2024-01-15T04:59:14;67268.88;;;-3.26;100.00
6859;BME280;3468;42.824;23.240;2024-01-15T05:01:41;67299.69;;;-3.19;100.00
6859;BME280;3468;42.824;23.240;2024-01-15T05:04:08;67274.78;;;-3.23;100.00
6859;BME280;3468;42.824;23.240;2024-01-15T05:06:34;67276.84;;;-3.13;100.00
6859;BME280;3468;42.824;23.240;2024-01-15T05:09:01;67281.59;;;-3.11;100.00
6859;BME280;3468;42.824;23.240;2024-01-15T05:11:28;67269.97;;;-3.06;100.00
6859;BME280;3468;42.824;23.240;2024-01-15T05:13:55;67330.50;;;-2.98;100.00
6859;BME280;3468;42.824;23.240;2024-01-15T05:16:23;67333.53;;;-2.91;100.00
6859;BME280;3468;42.824;23.240;2024-01-15T05:18:49;67060.59;;;-4.77;100.00
6859;BME280;3468;42.824;23.240;2024-01-15T05:21:16;67195.31;;;-3.02;100.00
6859;BME280;3468;42.824;23.240;2024-01-15T05:23:43;67296.50;;;-2.61;100.00
6859;BME280;3468;42.824;23.240;2024-01-15T05:26:10;67331.16;;;-2.55;100.00
6859;BME280;3468;42.824;23.240;2024-01-15T05:28:37;67486.22;;;-3.35;100.00
6859;BME280;3468;42.824;23.240;2024-01-15T05:31:03;67385.63;;;-2.42;100.00
6859;BME280;3468;42.824;23.240;2024-01-15T05:33:31;67370.97;;;-2.38;100.00
6859;BME280;3468;42.824;23.240;2024-01-15T05:35:58;67336.63;;;-2.29;100.00
6859;BME280;3468;42.824;23.240;2024-01-15T05:38:25;67346.56;;;-2.35;100.00
6859;BME280;3468;42.824;23.240;2024-01-15T05:40:52;67361.97;;;-2.28;100.00
6859;BME280;3468;42.824;23.240;2024-01-15T05:43:19;67378.53;;;-2.20;100.00
6859;BME280;3468;42.824;23.240;2024-01-15T05:45:45;67418.19;;;-2.20;100.00
6859;BME280;3468;42.824;23.240;2024-01-15T05:48:12;67408.84;;;-2.13;100.00
6859;BME280;3468;42.824;23.240;2024-01-15T05:50:41;67383.66;;;-2.09;100.00
6859;BME280;3468;42.824;23.240;2024-01-15T05:53:08;67358.88;;;-2.09;100.00
6859;BME280;3468;42.824;23.240;2024-01-15T05:55:35;67310.56;;;-2.47;100.00
6859;BME280;3468;42.824;23.240;2024-01-15T05:58:02;67378.34;;;-2.18;100.00
6859;BME280;3468;42.824;23.240;2024-01-15T06:00:29;67386.94;;;-2.30;100.00
6859;BME280;3468;42.824;23.240;2024-01-15T06:02:58;67418.25;;;-2.46;100.00
6859;BME280;3468;42.824;23.240;2024-01-15T06:05:25;67365.66;;;-2.47;100.00
6859;BME280;3468;42.824;23.240;2024-01-15T06:07:53;67354.03;;;-2.48;100.00
6859;BME280;3468;42.824;23.240;2024-01-15T06:10:20;67337.81;;;-2.47;100.00
6859;BME280;3468;42.824;23.240;2024-01-15T06:12:46;67346.78;;;-2.50;100.00
6859;BME280;3468;42.824;23.240;2024-01-15T06:15:13;67353.25;;;-2.40;100.00
6859;BME280;3468;42.824;23.240;2024-01-15T06:17:40;67339.47;;;-2.26;100.00
6859;BME280;3468;42.824;23.240;2024-01-15T06:20:08;67281.41;;;-2.47;100.00
6859;BME280;3468;42.824;23.240;2024-01-15T06:22:35;67405.94;;;-1.47;100.00
6859;BME280;3468;42.824;23.240;2024-01-15T06:25:06;67492.88;;;-1.04;100.00
6859;BME280;3468;42.824;23.240;2024-01-15T06:27:33;67469.50;;;-0.88;100.00
6859;BME280;3468;42.824;23.240;2024-01-15T06:30:00;67439.66;;;-1.24;100.00
6859;BME280;3468;42.824;23.240;2024-01-15T06:32:27;67477.88;;;-0.85;100.00
6859;BME280;3468;42.824;23.240;2024-01-15T06:34:54;67463.59;;;-0.97;100.00
6859;BME280;3468;42.824;23.240;2024-01-15T06:37:21;67447.78;;;-1.07;100.00
6859;BME280;3468;42.824;23.240;2024-01-15T06:39:47;67467.84;;;-1.09;100.00
6859;BME280;3468;42.824;23.240;2024-01-15T06:42:15;67489.06;;;-1.10;100.00
6859;BME280;3468;42.824;23.240;2024-01-15T06:44:42;67478.72;;;-1.06;100.00
6859;BME280;3468;42.824;23.240;2024-01-15T06:47:09;67481.44;;;-0.71;100.00
6859;BME280;3468;42.824;23.240;2024-01-15T06:49:36;67518.59;;;-0.09;100.00
6859;BME280;3468;42.824;23.240;2024-01-15T06:52:03;67604.69;;;0.91;99.70
6859;BME280;3468;42.824;23.240;2024-01-15T06:54:30;67662.69;;;1.57;95.41
6859;BME280;3468;42.824;23.240;2024-01-15T06:56:56;67699.78;;;1.78;94.84
6859;BME280;3468;42.824;23.240;2024-01-15T06:59:24;67674.81;;;1.78;93.83
6859;BME280;3468;42.824;23.240;2024-01-15T07:01:51;67644.09;;;1.56;93.47
6859;BME280;3468;42.824;23.240;2024-01-15T07:04:18;67635.50;;;1.24;93.99
6859;BME280;3468;42.824;23.240;2024-01-15T07:06:44;67615.25;;;0.62;97.29
6859;BME280;3468;42.824;23.240;2024-01-15T07:09:13;67451.75;;;-0.30;99.07
6859;BME280;3468;42.824;23.240;2024-01-15T07:11:44;67462.47;;;-0.62;100.00
6859;BME280;3468;42.824;23.240;2024-01-15T07:14:11;67510.69;;;-0.29;100.00
6859;BME280;3468;42.824;23.240;2024-01-15T07:16:39;67567.13;;;-0.34;100.00
6859;BME280;3468;42.824;23.240;2024-01-15T07:19:06;67506.75;;;-0.51;100.00
6859;BME280;3468;42.824;23.240;2024-01-15T07:21:33;67487.34;;;-0.68;100.00
6859;BME280;3468;42.824;23.240;2024-01-15T07:23:59;67477.28;;;-0.79;100.00
6859;BME280;3468;42.824;23.240;2024-01-15T07:26:26;67467.47;;;-1.05;100.00
6859;BME280;3468;42.824;23.240;2024-01-15T07:28:53;67453.47;;;-1.02;100.00
6859;BME280;3468;42.824;23.240;2024-01-15T07:31:19;67461.13;;;-1.04;100.00
6859;BME280;3468;42.824;23.240;2024-01-15T07:33:48;67472.22;;;-1.03;100.00
6859;BME280;3468;42.824;23.240;2024-01-15T07:36:14;67451.38;;;-0.99;100.00
6859;BME280;3468;42.824;23.240;2024-01-15T07:38:41;67480.78;;;-0.95;100.00
6859;BME280;3468;42.824;23.240;2024-01-15T07:41:08;67503.13;;;-0.89;100.00
6859;BME280;3468;42.824;23.240;2024-01-15T07:43:35;67483.56;;;-0.80;100.00
6859;BME280;3468;42.824;23.240;2024-01-15T07:46:01;67486.25;;;-0.76;100.00
6859;BME280;3468;42.824;23.240;2024-01-15T07:48:28;67496.72;;;-0.69;100.00
6859;BME280;3468;42.824;23.240;2024-01-15T07:50:56;67517.00;;;-0.73;100.00
6859;BME280;3468;42.824;23.240;2024-01-15T07:53:23;67523.63;;;-0.58;100.00
6859;BME280;3468;42.824;23.240;2024-01-15T07:55:50;67500.84;;;-0.54;100.00
6859;BME280;3468;42.824;23.240;2024-01-15T07:58:17;67512.50;;;-0.16;100.00
6859;BME280;3468;42.824;23.240;2024-01-15T08:00:44;67534.47;;;-0.06;100.00
6859;BME280;3468;42.824;23.240;2024-01-15T08:03:11;67615.75;;;0.39;100.00
6859;BME280;3468;42.824;23.240;2024-01-15T08:05:37;67601.81;;;0.65;100.00
6859;BME280;3468;42.824;23.240;2024-01-15T08:08:06;67644.81;;;0.83;100.00
6859;BME280;3468;42.824;23.240;2024-01-15T08:10:32;67572.56;;;0.83;100.00
6859;BME280;3468;42.824;23.240;2024-01-15T08:12:59;67608.78;;;0.82;100.00
6859;BME280;3468;42.824;23.240;2024-01-15T08:15:26;67626.41;;;0.86;100.00
6859;BME280;3468;42.824;23.240;2024-01-15T08:17:52;67648.13;;;0.75;100.00
6859;BME280;3468;42.824;23.240;2024-01-15T08:20:19;67598.91;;;0.69;100.00
6859;BME280;3468;42.824;23.240;2024-01-15T08:22:46;67637.94;;;0.77;100.00
6859;BME280;3468;42.824;23.240;2024-01-15T08:25:15;67590.72;;;0.88;100.00
6859;BME280;3468;42.824;23.240;2024-01-15T08:27:41;67628.81;;;0.93;100.00
6859;BME280;3468;42.824;23.240;2024-01-15T08:30:10;67616.78;;;0.89;100.00
6859;BME280;3468;42.824;23.240;2024-01-15T08:32:37;67586.78;;;0.78;100.00
6859;BME280;3468;42.824;23.240;2024-01-15T08:35:07;67644.44;;;0.81;100.00
6859;BME280;3468;42.824;23.240;2024-01-15T08:37:34;67593.31;;;0.75;100.00
6859;BME280;3468;42.824;23.240;2024-01-15T08:40:01;67633.66;;;0.88;99.79
6859;BME280;3468;42.824;23.240;2024-01-15T08:42:30;67602.78;;;0.62;99.55
6859;BME280;3468;42.824;23.240;2024-01-15T08:44:57;67610.47;;;0.90;99.88
6859;BME280;3468;42.824;23.240;2024-01-15T08:47:23;67604.50;;;0.93;99.55
6859;BME280;3468;42.824;23.240;2024-01-15T08:49:51;67611.28;;;0.82;99.76
6859;BME280;3468;42.824;23.240;2024-01-15T08:52:17;67607.19;;;0.61;99.86
6859;BME280;3468;42.824;23.240;2024-01-15T08:54:45;67596.63;;;0.67;100.00
6859;BME280;3468;42.824;23.240;2024-01-15T08:57:12;67638.72;;;1.06;100.00
6859;BME280;3468;42.824;23.240;2024-01-15T08:59:40;67633.31;;;1.10;100.00
6859;BME280;3468;42.824;23.240;2024-01-15T09:02:07;67652.13;;;1.09;100.00
6859;BME280;3468;42.824;23.240;2024-01-15T09:04:34;67634.47;;;1.11;100.00
6859;BME280;3468;42.824;23.240;2024-01-15T09:07:01;67654.19;;;1.13;100.00
6859;BME280;3468;42.824;23.240;2024-01-15T09:09:28;67627.09;;;1.22;100.00
6859;BME280;3468;42.824;23.240;2024-01-15T09:11:54;67660.97;;;1.31;100.00
6859;BME280;3468;42.824;23.240;2024-01-15T09:14:21;67681.03;;;1.42;100.00
6859;BME280;3468;42.824;23.240;2024-01-15T09:16:51;67687.34;;;1.48;100.00
6859;BME280;3468;42.824;23.240;2024-01-15T09:19:17;67677.50;;;1.52;100.00
6859;BME280;3468;42.824;23.240;2024-01-15T09:21:44;67696.47;;;1.79;100.00
6859;BME280;3468;42.824;23.240;2024-01-15T09:24:11;67705.84;;;1.85;97.16
6859;BME280;3468;42.824;23.240;2024-01-15T09:26:38;67726.88;;;1.99;98.80
6859;BME280;3468;42.824;23.240;2024-01-15T09:29:04;67772.47;;;2.82;95.93
6859;BME280;3468;42.824;23.240;2024-01-15T09:31:31;67822.31;;;3.42;86.43
6859;BME280;3468;42.824;23.240;2024-01-15T09:33:59;67869.56;;;3.91;84.34
6859;BME280;3468;42.824;23.240;2024-01-15T09:36:27;67923.31;;;4.27;82.74
6859;BME280;3468;42.824;23.240;2024-01-15T09:38:54;67849.94;;;4.05;81.82
6859;BME280;3468;42.824;23.240;2024-01-15T09:41:21;67892.53;;;4.22;82.47
6859;BME280;3468;42.824;23.240;2024-01-15T09:43:48;67945.88;;;4.61;82.14
6859;BME280;3468;42.824;23.240;2024-01-15T09:46:15;67970.09;;;5.21;82.82
6859;BME280;3468;42.824;23.240;2024-01-15T09:48:43;67995.94;;;5.54;77.47
6859;BME280;3468;42.824;23.240;2024-01-15T09:51:11;68042.16;;;6.14;77.93
6859;BME280;3468;42.824;23.240;2024-01-15T09:53:38;68045.03;;;5.99;75.75
6859;BME280;3468;42.824;23.240;2024-01-15T09:56:06;68084.81;;;6.20;78.00
6859;BME280;3468;42.824;23.240;2024-01-15T09:58:33;68075.56;;;6.86;75.02
6859;BME280;3468;42.824;23.240;2024-01-15T10:01:01;68151.28;;;7.51;71.63
6859;BME280;3468;42.824;23.240;2024-01-15T10:03:29;68156.09;;;7.53;73.58
6859;BME280;3468;42.824;23.240;2024-01-15T10:05:58;68190.72;;;7.59;71.98
6859;BME280;3468;42.824;23.240;2024-01-15T10:08:27;68202.03;;;7.92;72.08
6859;BME280;3468;42.824;23.240;2024-01-15T10:10:53;68215.44;;;8.52;69.43
6859;BME280;3468;42.824;23.240;2024-01-15T10:13:20;68213.13;;;8.50;68.86
6859;BME280;3468;42.824;23.240;2024-01-15T10:15:47;68238.97;;;8.83;71.22
6859;BME280;3468;42.824;23.240;2024-01-15T10:18:14;68254.13;;;8.72;68.02
6859;BME280;3468;42.824;23.240;2024-01-15T10:20:41;68272.50;;;8.77;68.88
6859;BME280;3468;42.824;23.240;2024-01-15T10:23:08;68253.41;;;8.56;68.90
6859;BME280;3468;42.824;23.240;2024-01-15T10:25:36;68225.31;;;8.04;70.49
6859;BME280;3468;42.824;23.240;2024-01-15T10:28:04;68190.53;;;7.82;73.06
6859;BME280;3468;42.824;23.240;2024-01-15T10:30:32;68178.44;;;7.61;72.80
6859;BME280;3468;42.824;23.240;2024-01-15T10:32:59;68135.81;;;7.48;71.43
6859;BME280;3468;42.824;23.240;2024-01-15T10:35:29;68156.31;;;7.51;71.04
6859;BME280;3468;42.824;23.240;2024-01-15T10:37:56;68159.19;;;7.53;72.10
6859;BME280;3468;42.824;23.240;2024-01-15T10:40:23;68089.16;;;7.32;73.99
6859;BME280;3468;42.824;23.240;2024-01-15T10:42:51;68134.09;;;7.36;74.49
6859;BME280;3468;42.824;23.240;2024-01-15T10:45:19;68041.53;;;7.30;74.39
6859;BME280;3468;42.824;23.240;2024-01-15T10:47:45;68212.97;;;7.74;74.92
6859;BME280;3468;42.824;23.240;2024-01-15T10:50:14;68200.84;;;7.81;76.23
6859;BME280;3468;42.824;23.240;2024-01-15T10:52:42;68198.81;;;7.87;75.89
6859;BME280;3468;42.824;23.240;2024-01-15T10:55:10;68211.41;;;7.98;77.02
6859;BME280;3468;42.824;23.240;2024-01-15T10:57:37;68228.44;;;8.15;77.14
6859;BME280;3468;42.824;23.240;2024-01-15T11:00:06;68231.81;;;8.24;77.17
6859;BME280;3468;42.824;23.240;2024-01-15T11:02:35;68189.91;;;8.10;75.86
6859;BME280;3468;42.824;23.240;2024-01-15T11:05:03;68211.69;;;8.07;74.33
6859;BME280;3468;42.824;23.240;2024-01-15T11:07:31;68180.97;;;8.00;76.68
6859;BME280;3468;42.824;23.240;2024-01-15T11:09:57;68218.63;;;8.35;75.44
6859;BME280;3468;42.824;23.240;2024-01-15T11:12:24;68259.16;;;8.61;73.78
6859;BME280;3468;42.824;23.240;2024-01-15T11:14:51;68267.09;;;8.74;73.54
6859;BME280;3468;42.824;23.240;2024-01-15T11:17:21;68282.03;;;8.98;74.73
6859;BME280;3468;42.824;23.240;2024-01-15T11:19:50;68310.19;;;9.22;72.80
6859;BME280;3468;42.824;23.240;2024-01-15T11:22:48;68327.53;;;9.52;69.32
6859;BME280;3468;42.824;23.240;2024-01-15T11:25:16;68372.59;;;9.67;64.92
6859;BME280;3468;42.824;23.240;2024-01-15T11:27:45;68345.13;;;9.91;63.46
6859;BME280;3468;42.824;23.240;2024-01-15T11:30:16;68331.19;;;9.64;63.54
6859;BME280;3468;42.824;23.240;2024-01-15T11:32:44;68317.44;;;9.63;63.91
6859;BME280;3468;42.824;23.240;2024-01-15T11:35:13;68369.81;;;9.69;63.10
6859;BME280;3468;42.824;23.240;2024-01-15T11:37:58;68349.84;;;9.78;63.65
6859;BME280;3468;42.824;23.240;2024-01-15T11:40:39;68278.59;;;9.39;61.92
6859;BME280;3468;42.824;23.240;2024-01-15T11:43:08;68333.06;;;9.59;62.30
6859;BME280;3468;42.824;23.240;2024-01-15T11:45:35;68338.78;;;9.64;62.84
6859;BME280;3468;42.824;23.240;2024-01-15T11:48:14;68316.63;;;9.54;68.45
6859;BME280;3468;42.824;23.240;2024-01-15T11:50:42;68341.34;;;9.43;67.67
6859;BME280;3468;42.824;23.240;2024-01-15T11:53:16;68350.63;;;9.44;67.99
6859;BME280;3468;42.824;23.240;2024-01-15T11:55:44;68326.38;;;9.41;66.09
6859;BME280;3468;42.824;23.240;2024-01-15T11:58:12;68333.16;;;9.42;66.82
6859;BME280;3468;42.824;23.240;2024-01-15T12:00:39;68672.13;;;9.23;74.43
6859;BME280;3468;42.824;23.240;2024-01-15T12:03:07;68247.13;;;8.83;73.70
6859;BME280;3468;42.824;23.240;2024-01-15T12:05:36;68242.69;;;8.34;77.29
6859;BME280;3468;42.824;23.240;2024-01-15T12:08:04;68192.88;;;8.06;78.15
6859;BME280;3468;42.824;23.240;2024-01-15T12:10:35;68173.47;;;7.83;77.40
6859;BME280;3468;42.824;23.240;2024-01-15T12:13:05;68184.13;;;7.83;76.80
6859;BME280;3468;42.824;23.240;2024-01-15T12:15:32;68197.72;;;7.69;77.12
6859;BME280;3468;42.824;23.240;2024-01-15T12:18:01;68141.47;;;7.60;75.70
6859;BME280;3468;42.824;23.240;2024-01-15T12:20:29;68147.91;;;7.31;78.71
6859;BME280;3468;42.824;23.240;2024-01-15T12:22:57;68118.13;;;7.27;78.49
6859;BME280;3468;42.824;23.240;2024-01-15T12:25:25;68146.16;;;7.18;79.48
6859;BME280;3468;42.824;23.240;2024-01-15T12:27:53;68132.75;;;7.09;78.30
6859;BME280;3468;42.824;23.240;2024-01-15T12:30:20;68151.56;;;7.21;80.97
6859;BME280;3468;42.824;23.240;2024-01-15T12:32:47;68133.09;;;7.11;79.92
6859;BME280;3468;42.824;23.240;2024-01-15T12:35:14;68108.84;;;6.86;81.35
6859;BME280;3468;42.824;23.240;2024-01-15T12:37:41;68060.94;;;6.93;80.39
6859;BME280;3468;42.824;23.240;2024-01-15T12:40:11;68140.63;;;7.00;78.82
6859;BME280;3468;42.824;23.240;2024-01-15T12:42:38;68042.06;;;6.87;77.14
6859;BME280;3468;42.824;23.240;2024-01-15T12:45:06;68097.75;;;6.90;77.94
6859;BME280;3468;42.824;23.240;2024-01-15T12:47:33;68159.91;;;6.91;79.30
6859;BME280;3468;42.824;23.240;2024-01-15T12:50:00;68113.97;;;6.80;80.81
6859;BME280;3468;42.824;23.240;2024-01-15T12:52:27;68397.47;;;6.29;81.56
6859;BME280;3468;42.824;23.240;2024-01-15T12:54:54;68113.28;;;6.75;80.83
6859;BME280;3468;42.824;23.240;2024-01-15T12:57:22;68060.97;;;6.64;79.46
6859;BME280;3468;42.824;23.240;2024-01-15T12:59:49;68086.22;;;6.58;81.77
6859;BME280;3468;42.824;23.240;2024-01-15T13:02:16;68105.06;;;6.53;82.27
6859;BME280;3468;42.824;23.240;2024-01-15T13:04:43;68091.91;;;6.52;81.32
6859;BME280;3468;42.824;23.240;2024-01-15T13:07:10;68069.28;;;6.52;81.59
6859;BME280;3468;42.824;23.240;2024-01-15T13:09:37;68084.59;;;6.50;82.71